Time;durP1;ratioP1;P1;durP2;ratioP2;P2;SDS_P1;SDS_P2;PMS_P1;PMS_P2;Temp;Humidity;BMP_temperature;BMP_pressure;BME280_temperature;BME280_humidity;BME280_pressure;Samples;Min_cycle;Max_cycle;Signal;HPM_P1;HPM_P2
2022/09/23 00:00:25;;;;;;;;;;;;;;;24.91;nan;101205.00;5054408;28;2014;-33
2022/09/23 00:02:52;;;;;;;;;;;;;;;24.90;nan;101200.63;5054490;28;1728;-30
2022/09/23 00:05:18;;;;;;;;;;;;;;;24.91;nan;101207.69;5054988;28;1204;-33
2022/09/23 00:07:45;;;;;;;;;;;;;;;24.90;nan;101203.31;5053554;28;1709;-28
2022/09/23 00:10:12;;;;;;;;;;;;;;;24.89;nan;101199.81;5052677;28;1283;-30
2022/09/23 00:12:39;;;;;;;;;;;;;;;24.89;nan;101204.28;5055193;28;1187;-34
2022/09/23 00:15:06;;;;;;;;;;;;;;;24.88;nan;101199.91;5053533;28;1309;-32
2022/09/23 00:17:32;;;;;;;;;;;;;;;24.88;nan;101194.59;5054780;28;1902;-35
2022/09/23 00:19:59;;;;;;;;;;;;;;;24.88;nan;101197.25;5055012;28;1292;-29
2022/09/23 00:22:26;;;;;;;;;;;;;;;24.88;nan;101189.25;5055100;28;1216;-30
2022/09/23 00:24:53;;;;;;;;;;;;;;;24.88;nan;101189.25;5054828;28;1278;-32
2022/09/23 00:27:20;;;;;;;;;;;;;;;24.88;nan;101183.94;5055100;28;1022;-31
2022/09/23 00:29:47;;;;;;;;;;;;;;;24.86;nan;101181.41;5055144;28;1213;-27
2022/09/23 00:32:14;;;;;;;;;;;;;;;24.86;nan;101180.53;5054578;28;1466;-34
2022/09/23 00:34:42;;;;;;;;;;;;;;;24.87;nan;101176.88;5054760;28;1174;-34
2022/09/23 00:37:10;;;;;;;;;;;;;;;24.85;nan;101168.16;5054911;28;1922;-30
2022/09/23 00:39:37;;;;;;;;;;;;;;;24.86;nan;101173.41;5054825;28;1311;-30
2022/09/23 00:42:03;;;;;;;;;;;;;;;24.87;nan;101174.22;5054514;28;1223;-27
2022/09/23 00:44:41;;;;;;;;;;;;;;;24.86;nan;101169.88;5054595;28;736;-27
2022/09/23 00:47:13;;;;;;;;;;;;;;;24.87;nan;101166.22;5053738;28;1134;-32
2022/09/23 00:49:40;;;;;;;;;;;;;;;24.86;nan;101172.53;5054338;28;1352;-31
2022/09/23 00:52:12;;;;;;;;;;;;;;;24.85;nan;101169.03;5054526;28;1124;-35
2022/09/23 00:54:39;;;;;;;;;;;;;;;24.85;nan;101163.69;5086459;28;1264;-33
2022/09/23 00:57:06;;;;;;;;;;;;;;;24.85;nan;101154.84;5054531;28;1037;-36
2022/09/23 00:59:33;;;;;;;;;;;;;;;24.84;nan;101151.31;5054506;28;1917;-29
2022/09/23 01:02:01;;;;;;;;;;;;;;;24.83;nan;101152.31;5054367;28;1347;-29
2022/09/23 01:04:28;;;;;;;;;;;;;;;24.85;nan;101152.19;5054290;28;922;-29
2022/09/23 01:06:55;;;;;;;;;;;;;;;24.84;nan;101153.13;5053889;28;1213;-30
2022/09/23 01:09:22;;;;;;;;;;;;;;;24.84;nan;101159.31;5053575;28;747;-34
2022/09/23 01:11:58;;;;;;;;;;;;;;;24.83;nan;101154.13;5053871;28;1203;-26
2022/09/23 01:14:57;;;;;;;;;;;;;;;24.81;nan;101151.56;5053830;28;632;-30
2022/09/23 01:17:30;;;;;;;;;;;;;;;24.83;nan;101148.81;5052421;28;2000;-33
2022/09/23 01:19:56;;;;;;;;;;;;;;;24.81;nan;101151.56;5053809;28;1281;-31
2022/09/23 01:22:26;;;;;;;;;;;;;;;24.81;nan;101143.56;5053941;28;1164;-31
2022/09/23 01:25:13;;;;;;;;;;;;;;;24.81;nan;101154.22;5054003;28;1211;-31
2022/09/23 01:27:49;;;;;;;;;;;;;;;24.81;nan;101137.38;5054104;28;1025;-26
2022/09/23 01:30:19;;;;;;;;;;;;;;;24.81;nan;101140.06;5053878;28;1252;-30
2022/09/23 01:32:58;;;;;;;;;;;;;;;24.81;nan;101140.06;5052985;28;1752;-30
2022/09/23 01:35:30;;;;;;;;;;;;;;;24.80;nan;101138.34;5049876;28;1457;-28
2022/09/23 01:38:00;;;;;;;;;;;;;;;24.79;nan;101136.63;5053591;28;1894;-33
2022/09/23 01:40:30;;;;;;;;;;;;;;;24.79;nan;101133.97;5053385;28;1180;-29
2022/09/23 01:43:03;;;;;;;;;;;;;;;24.78;nan;101127.78;5053578;28;1211;-33
2022/09/23 01:45:44;;;;;;;;;;;;;;;24.79;nan;101128.63;5044427;28;1723;-35
2022/09/23 01:48:17;;;;;;;;;;;;;;;24.78;nan;101125.13;5053654;28;1016;-32
2022/09/23 01:50:55;;;;;;;;;;;;;;;24.78;nan;101122.47;5053389;28;1596;-30
2022/09/23 01:53:25;;;;;;;;;;;;;;;24.79;nan;101125.97;5053609;28;1094;-29
2022/09/23 01:55:56;;;;;;;;;;;;;;;24.77;nan;101126.13;5053113;28;1276;-28
2022/09/23 01:58:29;;;;;;;;;;;;;;;24.77;nan;101130.59;5053159;28;1985;-30
2022/09/23 02:01:00;;;;;;;;;;;;;;;24.76;nan;101131.53;5052428;28;1280;-28
2022/09/23 02:03:30;;;;;;;;;;;;;;;24.77;nan;101133.25;5053291;28;1162;-36
2022/09/23 02:06:00;;;;;;;;;;;;;;;24.77;nan;101138.56;5053188;28;1291;-30
2022/09/23 02:08:27;;;;;;;;;;;;;;;24.77;nan;101135.91;5053686;28;1151;-28
2022/09/23 02:10:57;;;;;;;;;;;;;;;24.76;nan;101140.38;5052033;28;1198;-26
2022/09/23 02:13:24;;;;;;;;;;;;;;;24.76;nan;101136.88;5053437;28;1057;-29
2022/09/23 02:15:54;;;;;;;;;;;;;;;24.77;nan;101133.25;5053414;28;1318;-30
2022/09/23 02:18:24;;;;;;;;;;;;;;;24.76;nan;101134.19;5053208;28;1910;-36
2022/09/23 02:20:55;;;;;;;;;;;;;;;24.75;nan;101135.16;5052931;28;1239;-29
2022/09/23 02:23:23;;;;;;;;;;;;;;;24.75;nan;101140.50;5085056;28;1124;-30
2022/09/23 02:25:59;;;;;;;;;;;;;;;24.75;nan;101129.81;5052577;28;1145;-34
2022/09/23 02:28:49;;;;;;;;;;;;;;;24.75;nan;101135.16;5053072;28;1143;-27
2022/09/23 02:31:16;;;;;;;;;;;;;;;24.74;nan;101129.00;5057214;28;1271;-27
2022/09/23 02:33:52;;;;;;;;;;;;;;;24.74;nan;101133.47;5053400;28;1203;-28
2022/09/23 02:36:25;;;;;;;;;;;;;;;24.73;nan;101132.63;5052722;28;1279;-31
2022/09/23 02:38:56;;;;;;;;;;;;;;;24.73;nan;101131.78;5084947;28;1910;-34
2022/09/23 02:42:01;;;;;;;;;;;;;;;24.72;nan;101136.25;5052594;28;1292;-35
2022/09/23 02:44:29;;;;;;;;;;;;;;;24.71;nan;101129.25;5050275;28;668;-27
2022/09/23 02:46:56;;;;;;;;;;;;;;;24.72;nan;101124.75;5050123;28;1213;-32
2022/09/23 02:49:28;;;;;;;;;;;;;;;24.72;nan;101130.06;5051029;28;1092;-32
2022/09/23 02:51:55;;;;;;;;;;;;;;;24.72;nan;101119.41;5052903;28;1430;-30
2022/09/23 02:54:27;;;;;;;;;;;;;;;24.71;nan;101115.94;5052853;28;772;-30
2022/09/23 02:56:54;;;;;;;;;;;;;;;24.70;nan;101113.34;5052477;28;1213;-31
2022/09/23 02:59:21;;;;;;;;;;;;;;;24.71;nan;101117.72;5052856;28;1902;-31
2022/09/23 03:02:06;;;;;;;;;;;;;;;24.71;nan;101123.06;5052732;28;1205;-31
2022/09/23 03:04:39;;;;;;;;;;;;;;;24.71;nan;101117.72;5052840;28;847;-32
2022/09/23 03:07:20;;;;;;;;;;;;;;;24.70;nan;101118.69;5052870;28;1026;-31
2022/09/23 03:09:59;;;;;;;;;;;;;;;24.70;nan;101116.88;5051665;28;1693;-30
2022/09/23 03:12:46;;;;;;;;;;;;;;;24.70;nan;101116.88;5055693;28;1192;-25
2022/09/23 03:15:13;;;;;;;;;;;;;;;24.69;nan;101124.97;5056272;28;1274;-28
2022/09/23 03:17:45;;;;;;;;;;;;;;;24.68;nan;101115.31;5055845;28;1238;-32
2022/09/23 03:20:19;;;;;;;;;;;;;;;24.69;nan;101116.97;5055565;28;1918;-28
2022/09/23 03:22:50;;;;;;;;;;;;;;;24.68;nan;101116.16;5056475;28;1027;-32
2022/09/23 03:25:20;;;;;;;;;;;;;;;24.68;nan;101125.97;5071460;28;1276;-37
2022/09/23 03:27:47;;;;;;;;;;;;;;;24.65;nan;101118.19;5056377;28;1199;-35
2022/09/23 03:30:14;;;;;;;;;;;;;;;24.66;nan;101120.72;5056148;28;1280;-28
2022/09/23 03:32:43;;;;;;;;;;;;;;;24.67;nan;101116.25;5056087;28;958;-32
2022/09/23 03:35:10;;;;;;;;;;;;;;;24.66;nan;101123.41;5055731;28;1205;-31
2022/09/23 03:37:37;;;;;;;;;;;;;;;24.66;nan;101118.06;5056197;28;962;-32
2022/09/23 03:40:08;;;;;;;;;;;;;;;24.67;nan;101113.59;5055429;28;1969;-31
2022/09/23 03:42:36;;;;;;;;;;;;;;;24.66;nan;101110.06;5055688;28;1504;-21
2022/09/23 03:45:06;;;;;;;;;;;;;;;24.65;nan;101111.06;5055803;28;1280;-30
2022/09/23 03:47:32;;;;;;;;;;;;;;;24.65;nan;101112.88;5055844;28;1035;-27
2022/09/23 03:49:59;;;;;;;;;;;;;;;24.65;nan;101110.22;5055548;28;1355;-27
2022/09/23 03:52:26;;;;;;;;;;;;;;;24.63;nan;101112.13;5055687;28;1266;-32
2022/09/23 03:54:53;;;;;;;;;;;;;;;24.64;nan;101109.34;5055507;28;1197;-30
2022/09/23 03:57:23;;;;;;;;;;;;;;;24.63;nan;101106.78;5055851;28;995;-27
2022/09/23 03:59:50;;;;;;;;;;;;;;;24.63;nan;101104.97;5055688;28;1989;-33
2022/09/23 04:02:17;;;;;;;;;;;;;;;24.63;nan;101106.78;5055781;28;988;-30
2022/09/23 04:04:44;;;;;;;;;;;;;;;24.61;nan;101106.91;5055614;28;1224;-31
2022/09/23 04:07:12;;;;;;;;;;;;;;;24.61;nan;101112.25;5055486;28;1151;-31
2022/09/23 04:09:38;;;;;;;;;;;;;;;24.63;nan;101114.78;5054998;28;1607;-25
2022/09/23 04:12:05;;;;;;;;;;;;;;;24.61;nan;101112.25;5054679;28;1511;-33
2022/09/23 04:14:32;;;;;;;;;;;;;;;24.61;nan;101114.06;5055584;28;933;-36
2022/09/23 04:16:59;;;;;;;;;;;;;;;24.61;nan;101111.41;5055334;28;1411;-28
2022/09/23 04:19:26;;;;;;;;;;;;;;;24.61;nan;101116.72;5055015;28;1914;-33
2022/09/23 04:21:52;;;;;;;;;;;;;;;24.61;nan;101112.25;5055193;28;1231;-28
2022/09/23 04:24:19;;;;;;;;;;;;;;;24.61;nan;101112.25;5055368;28;908;-32
2022/09/23 04:26:49;;;;;;;;;;;;;;;24.61;nan;101122.03;5055236;28;1241;-31
2022/09/23 04:29:16;;;;;;;;;;;;;;;24.60;nan;101120.34;5070018;28;779;-28
2022/09/23 04:31:42;;;;;;;;;;;;;;;24.59;nan;101127.50;5055138;28;1268;-22
2022/09/23 04:34:09;;;;;;;;;;;;;;;24.59;nan;101130.16;5055203;28;713;-27
2022/09/23 04:36:37;;;;;;;;;;;;;;;24.61;nan;101132.69;5053495;28;1965;-24
2022/09/23 04:39:05;;;;;;;;;;;;;;;24.60;nan;101131.84;5085942;28;1909;-30
2022/09/23 04:41:31;;;;;;;;;;;;;;;24.60;nan;101137.19;5054511;28;1306;-24
2022/09/23 04:43:58;;;;;;;;;;;;;;;24.59;nan;101134.66;5054700;28;1624;-31
2022/09/23 04:46:25;;;;;;;;;;;;;;;24.60;nan;101131.00;5054411;28;1305;-33
2022/09/23 04:48:52;;;;;;;;;;;;;;;24.59;nan;101129.31;5054584;28;918;-33
2022/09/23 04:51:19;;;;;;;;;;;;;;;24.58;nan;101124.94;5054077;28;1285;-25
2022/09/23 04:53:47;;;;;;;;;;;;;;;24.58;nan;101131.13;5054805;28;1541;-31
2022/09/23 04:56:14;;;;;;;;;;;;;;;24.59;nan;101129.31;5054506;28;1302;-31
2022/09/23 04:58:41;;;;;;;;;;;;;;;24.58;nan;101128.47;5054853;28;1996;-30
2022/09/23 05:01:09;;;;;;;;;;;;;;;24.59;nan;101134.66;5044299;28;1876;-34
2022/09/23 05:03:36;;;;;;;;;;;;;;;24.57;nan;101126.75;5069115;28;1288;-34
2022/09/23 05:06:03;;;;;;;;;;;;;;;24.58;nan;101127.59;5054220;28;1208;-26
2022/09/23 05:08:30;;;;;;;;;;;;;;;24.58;nan;101132.94;5053635;28;1755;-34
2022/09/23 05:10:57;;;;;;;;;;;;;;;24.58;nan;101127.59;5053767;28;1325;-30
2022/09/23 05:13:25;;;;;;;;;;;;;;;24.59;nan;101134.66;5054247;28;1271;-31
2022/09/23 05:15:58;;;;;;;;;;;;;;;24.58;nan;101132.94;5051670;28;1709;-32
2022/09/23 05:18:26;;;;;;;;;;;;;;;24.58;nan;101138.25;5054254;28;1906;-34
2022/09/23 05:20:54;;;;;;;;;;;;;;;24.57;nan;101131.22;5053976;28;1267;-29
2022/09/23 05:23:21;;;;;;;;;;;;;;;24.57;nan;101125.91;5046772;28;1544;-36
2022/09/23 05:25:55;;;;;;;;;;;;;;;24.58;nan;101132.94;5052527;28;1347;-29
2022/09/23 05:28:21;;;;;;;;;;;;;;;24.57;nan;101129.41;5048909;28;1406;-29
2022/09/23 05:30:48;;;;;;;;;;;;;;;24.57;nan;101132.06;5049032;28;1755;-29
2022/09/23 05:33:16;;;;;;;;;;;;;;;24.57;nan;101126.75;5050761;28;1789;-35
2022/09/23 05:35:46;;;;;;;;;;;;;;;24.57;nan;101121.44;5052429;28;1340;-31
2022/09/23 05:38:15;;;;;;;;;;;;;;;24.56;nan;101119.75;5050031;28;1793;-35
2022/09/23 05:40:42;;;;;;;;;;;;;;;24.56;nan;101119.75;5051972;28;1905;-29
2022/09/23 05:43:09;;;;;;;;;;;;;;;24.56;nan;101122.41;5052261;28;1700;-30
2022/09/23 05:45:36;;;;;;;;;;;;;;;24.56;nan;101121.56;5048897;28;1360;-25
2022/09/23 05:48:03;;;;;;;;;;;;;;;24.56;nan;101127.75;5052456;28;1172;-28
2022/09/23 05:50:30;;;;;;;;;;;;;;;24.57;nan;101125.91;5052196;28;1734;-32
2022/09/23 05:52:58;;;;;;;;;;;;;;;24.56;nan;101118.91;5052793;28;1226;-31
2022/09/23 05:55:25;;;;;;;;;;;;;;;24.56;nan;101125.06;5052464;28;1197;-31
2022/09/23 05:57:52;;;;;;;;;;;;;;;24.60;nan;101131.00;5053030;28;1117;-30
2022/09/23 06:00:19;;;;;;;;;;;;;;;24.62;nan;101118.44;5051678;28;1914;-23
2022/09/23 06:02:46;;;;;;;;;;;;;;;24.65;nan;101120.88;5063132;28;1084;-27
2022/09/23 06:05:13;;;;;;;;;;;;;;;24.68;nan;101120.63;5053364;28;1292;-30
2022/09/23 06:07:39;;;;;;;;;;;;;;;24.70;nan;101124.00;5049731;28;1572;-25
2022/09/23 06:10:07;;;;;;;;;;;;;;;24.68;nan;101117.97;5048597;28;1276;-30
2022/09/23 06:12:34;;;;;;;;;;;;;;;24.69;nan;101119.63;5047465;28;1369;-25
2022/09/23 06:15:01;;;;;;;;;;;;;;;24.69;nan;101123.16;5050189;28;1300;-23
2022/09/23 06:17:28;;;;;;;;;;;;;;;24.72;nan;101127.41;5050619;28;1278;-29
2022/09/23 06:19:56;;;;;;;;;;;;;;;24.71;nan;101126.56;5048875;28;1906;-34
2022/09/23 06:22:24;;;;;;;;;;;;;;;24.73;nan;101123.78;5045181;28;1307;-21
2022/09/23 06:24:50;;;;;;;;;;;;;;;24.73;nan;101131.78;5045760;28;1307;-33
2022/09/23 06:27:17;;;;;;;;;;;;;;;24.75;nan;101140.50;5047929;28;996;-36
2022/09/23 06:29:44;;;;;;;;;;;;;;;24.77;nan;101135.91;5047679;28;1304;-22
2022/09/23 06:32:11;;;;;;;;;;;;;;;24.79;nan;101131.31;5045908;28;1036;-29
2022/09/23 06:34:40;;;;;;;;;;;;;;;24.78;nan;101135.78;5046708;28;1375;-30
2022/09/23 06:37:16;;;;;;;;;;;;;;;24.76;nan;101137.72;5048799;28;1144;-24
2022/09/23 06:39:45;;;;;;;;;;;;;;;24.65;nan;101143.03;5044389;28;1910;-29
2022/09/23 06:42:14;;;;;;;;;;;;;;;24.58;nan;101140.94;5041961;28;1041;-28
2022/09/23 06:44:42;;;;;;;;;;;;;;;24.59;nan;101145.28;5050738;28;1500;-31
2022/09/23 06:47:08;;;;;;;;;;;;;;;24.56;nan;101142.88;5054212;28;1104;-27
2022/09/23 06:49:35;;;;;;;;;;;;;;;24.54;nan;101142.09;5054440;28;1091;-21
2022/09/23 06:52:03;;;;;;;;;;;;;;;24.46;nan;101146.22;5055748;28;1488;-29
2022/09/23 06:54:30;;;;;;;;;;;;;;;24.42;nan;101144.75;5055304;28;1153;-30
2022/09/23 06:56:57;;;;;;;;;;;;;;;24.35;nan;101151.47;5055691;28;1224;-26
2022/09/23 06:59:24;;;;;;;;;;;;;;;24.56;nan;101149.03;5047648;28;1906;-33
2022/09/23 07:01:50;;;;;;;;;;;;;;;24.65;nan;101161.66;5045182;28;1732;-25
2022/09/23 07:04:17;;;;;;;;;;;;;;;24.69;nan;101148.94;5055701;28;1008;-30
2022/09/23 07:06:44;;;;;;;;;;;;;;;24.71;nan;101155.03;5055388;28;1299;-30
2022/09/23 07:09:11;;;;;;;;;;;;;;;24.72;nan;101146.03;5048518;28;1620;-29
2022/09/23 07:11:38;;;;;;;;;;;;;;;24.73;nan;101161.94;5035480;28;1173;-35
2022/09/23 07:14:05;;;;;;;;;;;;;;;24.74;nan;101152.97;5049223;28;1500;-23
2022/09/23 07:16:32;;;;;;;;;;;;;;;24.74;nan;101155.66;5053070;28;1292;-33
2022/09/23 07:18:59;;;;;;;;;;;;;;;24.75;nan;101154.66;5051827;28;1906;-30
2022/09/23 07:21:26;;;;;;;;;;;;;;;24.75;nan;101157.31;5051028;28;1520;-27
2022/09/23 07:23:54;;;;;;;;;;;;;;;24.75;nan;101156.47;5054524;28;1317;-29
2022/09/23 07:26:21;;;;;;;;;;;;;;;24.74;nan;101152.97;5068636;28;1333;-29
2022/09/23 07:28:53;;;;;;;;;;;;;;;24.75;nan;101156.47;5068056;28;1106;-25
2022/09/23 07:31:20;;;;;;;;;;;;;;;24.73;nan;101153.94;5055013;28;1284;-29
2022/09/23 07:34:00;;;;;;;;;;;;;;;24.74;nan;101154.78;5055075;28;1000;-29
2022/09/23 07:36:30;;;;;;;;;;;;;;;24.75;nan;101156.47;5054728;28;1216;-28
2022/09/23 07:38:59;;;;;;;;;;;;;;;24.75;nan;101153.81;5046174;28;1462;-28
2022/09/23 07:41:27;;;;;;;;;;;;;;;24.75;nan;101153.81;5054775;28;1922;-29
2022/09/23 07:43:57;;;;;;;;;;;;;;;24.75;nan;101162.66;5080881;28;1618;-28
2022/09/23 07:46:29;;;;;;;;;;;;;;;24.75;nan;101162.66;5041879;28;1250;-26
2022/09/23 07:48:56;;;;;;;;;;;;;;;24.71;nan;101166.53;5054140;28;1228;-31
2022/09/23 07:51:23;;;;;;;;;;;;;;;24.56;nan;101166.84;5054784;28;1216;-30
2022/09/23 07:53:50;;;;;;;;;;;;;;;24.45;nan;101171.13;5054065;28;1284;-27
2022/09/23 07:56:18;;;;;;;;;;;;;;;24.57;nan;101173.84;5052776;28;1744;-32
2022/09/23 07:58:45;;;;;;;;;;;;;;;24.58;nan;101175.53;5054350;28;1270;-29
2022/09/23 08:01:12;;;;;;;;;;;;;;;24.61;nan;101172.66;5054202;28;1938;-31
2022/09/23 08:03:39;;;;;;;;;;;;;;;24.57;nan;101182.69;5054062;28;1259;-31
2022/09/23 08:06:10;;;;;;;;;;;;;;;24.56;nan;101178.34;5051020;28;1520;-34
2022/09/23 08:08:42;;;;;;;;;;;;;;;24.45;nan;101187.13;5053627;28;1180;-34
2022/09/23 08:11:10;;;;;;;;;;;;;;;24.48;nan;101181.56;5054823;28;1351;-26
2022/09/23 08:13:37;;;;;;;;;;;;;;;24.55;nan;101186.44;5060602;28;1290;-33
2022/09/23 08:16:04;;;;;;;;;;;;;;;24.52;nan;101184.00;5044006;28;1639;-29
2022/09/23 08:18:30;;;;;;;;;;;;;;;24.48;nan;101191.34;5038966;28;1018;-30
2022/09/23 08:20:57;;;;;;;;;;;;;;;24.60;nan;101185.13;5073654;28;1983;-36
2022/09/23 08:23:24;;;;;;;;;;;;;;;24.67;nan;101193.50;5067962;28;1228;-32
2022/09/23 08:25:58;;;;;;;;;;;;;;;24.71;nan;101184.34;5053469;28;1237;-33
2022/09/23 08:28:25;;;;;;;;;;;;;;;24.73;nan;101191.25;5054262;28;1097;-31
2022/09/23 08:30:52;;;;;;;;;;;;;;;24.76;nan;101192.81;5054395;28;1302;-35
2022/09/23 08:33:20;;;;;;;;;;;;;;;24.79;nan;101196.09;5054611;28;957;-28
2022/09/23 08:35:49;;;;;;;;;;;;;;;24.80;nan;101202.28;5053081;28;1212;-36
2022/09/23 08:38:16;;;;;;;;;;;;;;;24.80;nan;101199.63;5071078;28;1248;-33
2022/09/23 08:40:46;;;;;;;;;;;;;;;24.80;nan;101196.97;5054003;28;1973;-29
2022/09/23 08:43:30;;;;;;;;;;;;;;;24.79;nan;101198.78;5054192;28;1245;-28
2022/09/23 08:46:01;;;;;;;;;;;;;;;24.81;nan;101206.66;5054088;28;1213;-36
2022/09/23 08:48:35;;;;;;;;;;;;;;;24.80;nan;101203.13;5054167;28;1140;-32
2022/09/23 08:51:09;;;;;;;;;;;;;;;24.80;nan;101205.81;5053781;28;1435;-34
2022/09/23 08:53:37;;;;;;;;;;;;;;;24.81;nan;101206.66;5052454;28;1982;-26
2022/09/23 08:56:08;;;;;;;;;;;;;;;24.81;nan;101209.31;5051266;28;1724;-35
2022/09/23 08:58:54;;;;;;;;;;;;;;;24.81;nan;101204.00;5054095;28;1125;-32
2022/09/23 09:01:33;;;;;;;;;;;;;;;24.81;nan;101204.84;5053502;28;1922;-34
2022/09/23 09:04:01;;;;;;;;;;;;;;;24.81;nan;101206.66;5053085;28;1431;-32
2022/09/23 09:06:39;;;;;;;;;;;;;;;24.84;nan;101214.41;5083910;28;1384;-29
2022/09/23 09:09:36;;;;;;;;;;;;;;;24.84;nan;101209.94;5081829;28;1020;-30
2022/09/23 09:12:13;;;;;;;;;;;;;;;24.84;nan;101207.28;5053502;28;1021;-30
2022/09/23 09:14:41;;;;;;;;;;;;;;;24.84;nan;101203.75;5053178;28;1609;-33
2022/09/23 09:17:30;;;;;;;;;;;;;;;24.83;nan;101205.59;5053487;28;1096;-27
2022/09/23 09:20:18;;;;;;;;;;;;;;;24.84;nan;101206.44;5052787;28;1942;-32
2022/09/23 09:22:46;;;;;;;;;;;;;;;24.83;nan;101200.28;5052121;28;1298;-33
2022/09/23 09:25:22;;;;;;;;;;;;;;;24.85;nan;101200.16;5053074;28;1343;-33
2022/09/23 09:27:50;;;;;;;;;;;;;;;24.85;nan;101200.16;5053584;28;1173;-26
2022/09/23 09:30:18;;;;;;;;;;;;;;;24.86;nan;101199.19;5052814;28;1272;-35
2022/09/23 09:32:56;;;;;;;;;;;;;;;24.86;nan;101196.53;5052993;28;1180;-34
2022/09/23 09:35:32;;;;;;;;;;;;;;;24.86;nan;101197.38;5052977;28;1422;-31
2022/09/23 09:37:59;;;;;;;;;;;;;;;24.88;nan;101191.91;5053650;28;1018;-36
2022/09/23 09:40:26;;;;;;;;;;;;;;;24.89;nan;101190.97;5032596;28;1910;-32
2022/09/23 09:42:53;;;;;;;;;;;;;;;24.87;nan;101188.41;5033364;28;1029;-33
2022/09/23 09:45:25;;;;;;;;;;;;;;;24.87;nan;101187.53;5084407;28;1323;-31
2022/09/23 09:48:27;;;;;;;;;;;;;;;24.88;nan;101189.25;5053314;28;1038;-32
2022/09/23 09:50:54;;;;;;;;;;;;;;;24.89;nan;101191.81;5050351;28;1397;-34
2022/09/23 09:53:25;;;;;;;;;;;;;;;24.91;nan;101189.03;5023254;28;1187;-31
2022/09/23 09:55:59;;;;;;;;;;;;;;;24.91;nan;101191.69;5032929;28;1387;-32
2022/09/23 09:58:44;;;;;;;;;;;;;;;24.89;nan;101189.16;5033093;28;1208;-31
2022/09/23 10:01:21;;;;;;;;;;;;;;;24.89;nan;101180.31;5032936;28;1976;-27
2022/09/23 10:03:49;;;;;;;;;;;;;;;24.87;nan;101177.75;5031221;28;1004;-35
2022/09/23 10:06:18;;;;;;;;;;;;;;;24.90;nan;101176.66;5032832;28;1292;-34
2022/09/23 10:09:02;;;;;;;;;;;;;;;24.92;nan;101180.94;5029881;28;1630;-33
2022/09/23 10:11:30;;;;;;;;;;;;;;;24.91;nan;101178.38;5057601;28;1264;-32
2022/09/23 10:14:04;;;;;;;;;;;;;;;24.90;nan;101184.66;5028778;28;1203;-30
2022/09/23 10:16:32;;;;;;;;;;;;;;;24.90;nan;101181.97;5054166;28;1707;-29
2022/09/23 10:19:00;;;;;;;;;;;;;;;24.93;nan;101176.41;5056493;28;1350;-35
2022/09/23 10:21:33;;;;;;;;;;;;;;;24.94;nan;101178.97;5016485;28;1981;-33
2022/09/23 10:24:03;;;;;;;;;;;;;;;24.95;nan;101169.19;5015449;28;739;-35
2022/09/23 10:26:31;;;;;;;;;;;;;;;24.99;nan;101171.47;5031668;28;1209;-35
2022/09/23 10:29:00;;;;;;;;;;;;;;;24.99;nan;101173.28;5032295;28;832;-32
2022/09/23 10:31:26;;;;;;;;;;;;;;;24.99;nan;101168.81;5031989;28;1269;-33
2022/09/23 10:33:56;;;;;;;;;;;;;;;24.98;nan;101167.13;5012856;28;914;-29
2022/09/23 10:36:23;;;;;;;;;;;;;;;25.04;nan;101173.81;5012673;28;1234;-33
2022/09/23 10:38:53;;;;;;;;;;;;;;;25.05;nan;101175.47;5031502;28;1025;-33
2022/09/23 10:47:31;;;;;;;;;;;;;;;25.02;nan;101164.22;5032473;28;1086;-32
2022/09/23 10:50:13;;;;;;;;;;;;;;;25.01;nan;101168.72;5020584;28;1217;-32
2022/09/23 10:52:58;;;;;;;;;;;;;;;24.99;nan;101165.28;5042105;28;1073;-33
2022/09/23 10:55:25;;;;;;;;;;;;;;;24.99;nan;101166.16;5050786;28;1193;-34
2022/09/23 10:57:52;;;;;;;;;;;;;;;24.98;nan;101160.94;5050687;28;1023;-32
2022/09/23 11:00:24;;;;;;;;;;;;;;;24.97;nan;101161.91;5049526;28;1922;-35
2022/09/23 11:02:57;;;;;;;;;;;;;;;24.97;nan;101161.91;5052052;28;1036;-36
2022/09/23 11:05:27;;;;;;;;;;;;;;;24.99;nan;101159.97;5050678;28;1229;-30
2022/09/23 11:07:59;;;;;;;;;;;;;;;25.00;nan;101154.53;5051909;28;1131;-30
2022/09/23 11:10:51;;;;;;;;;;;;;;;25.03;nan;101150.78;5052030;28;1264;-34
2022/09/23 11:13:33;;;;;;;;;;;;;;;25.01;nan;101158.06;5052212;28;1094;-32
2022/09/23 11:16:18;;;;;;;;;;;;;;;25.00;nan;101145.69;5051779;28;1221;-32
2022/09/23 11:19:07;;;;;;;;;;;;;;;24.98;nan;101153.81;5050177;28;1165;-31
2022/09/23 11:21:33;;;;;;;;;;;;;;;25.00;nan;101153.69;5048069;28;1902;-34
2022/09/23 11:24:00;;;;;;;;;;;;;;;25.01;nan;101142.06;5041449;28;1299;-32
2022/09/23 11:26:27;;;;;;;;;;;;;;;25.00;nan;101145.69;5069908;28;1434;-35
2022/09/23 11:28:59;;;;;;;;;;;;;;;25.03;nan;101140.13;5031935;28;676;-32
2022/09/23 11:31:35;;;;;;;;;;;;;;;25.02;nan;101139.25;5031985;28;1237;-32
2022/09/23 11:34:21;;;;;;;;;;;;;;;25.02;nan;101143.72;5051508;28;1523;-31
2022/09/23 11:36:52;;;;;;;;;;;;;;;25.01;nan;101142.06;5053766;28;1308;-30
2022/09/23 11:39:22;;;;;;;;;;;;;;;25.00;nan;101143.88;5036418;28;699;-30
2022/09/23 11:41:52;;;;;;;;;;;;;;;25.03;nan;101132.13;5044417;28;1913;-31
2022/09/23 11:44:30;;;;;;;;;;;;;;;25.04;nan;101135.63;5036930;28;672;-36
2022/09/23 11:47:07;;;;;;;;;;;;;;;25.05;nan;101129.34;5039435;28;1316;-30
2022/09/23 11:49:40;;;;;;;;;;;;;;;25.05;nan;101122.19;5080373;28;1338;-30
2022/09/23 11:52:20;;;;;;;;;;;;;;;25.05;nan;101124.84;5052926;28;1077;-32
2022/09/23 11:55:00;;;;;;;;;;;;;;;25.05;nan;101108.03;5046568;28;1300;-33
2022/09/23 11:57:30;;;;;;;;;;;;;;;25.05;nan;101105.38;5050800;28;1930;-36
2022/09/23 12:00:20;;;;;;;;;;;;;;;25.04;nan;101112.50;5037583;28;1378;-30
2022/09/23 12:03:00;;;;;;;;;;;;;;;25.02;nan;101091.28;5037732;28;1081;-31
2022/09/23 12:05:38;;;;;;;;;;;;;;;25.02;nan;101099.28;5038980;28;1355;-28
2022/09/23 12:08:16;;;;;;;;;;;;;;;25.03;nan;101102.81;5037278;28;1149;-31
2022/09/23 12:10:50;;;;;;;;;;;;;;;25.03;nan;101100.13;5037790;28;1485;-31
2022/09/23 12:13:35;;;;;;;;;;;;;;;25.05;nan;101094.69;5036561;28;1027;-32
2022/09/23 12:16:08;;;;;;;;;;;;;;;25.07;nan;101101.59;5049430;28;1354;-31
2022/09/23 12:18:44;;;;;;;;;;;;;;;25.12;nan;101091.41;5053699;28;1196;-33
2022/09/23 12:21:14;;;;;;;;;;;;;;;25.17;nan;101089.22;5053677;28;1942;-31
2022/09/23 12:24:19;;;;;;;;;;;;;;;25.21;nan;101082.69;5039747;28;1989;-28
2022/09/23 12:26:49;;;;;;;;;;;;;;;25.23;nan;101071.94;5047759;28;1266;-31
2022/09/23 12:29:16;;;;;;;;;;;;;;;25.19;nan;101068.66;5083263;28;1105;-31
2022/09/23 12:31:43;;;;;;;;;;;;;;;25.17;nan;101067.91;5050374;28;1343;-35
2022/09/23 12:34:38;;;;;;;;;;;;;;;25.17;nan;101067.91;5047396;28;1228;-35
2022/09/23 12:37:05;;;;;;;;;;;;;;;25.20;nan;101069.50;5050806;28;1954;-36
2022/09/23 12:39:33;;;;;;;;;;;;;;;25.20;nan;101066.84;5049952;28;1034;-30
2022/09/23 12:42:13;;;;;;;;;;;;;;;25.19;nan;101059.81;5050840;28;1918;-34
2022/09/23 12:44:41;;;;;;;;;;;;;;;25.19;nan;101058.00;5050279;28;1414;-28
2022/09/23 12:47:20;;;;;;;;;;;;;;;25.19;nan;101050.00;5049589;28;1336;-25
2022/09/23 12:49:49;;;;;;;;;;;;;;;25.19;nan;101050.00;5048644;28;1358;-29
2022/09/23 12:52:16;;;;;;;;;;;;;;;25.19;nan;101034.00;5049112;28;1132;-27
2022/09/23 12:54:44;;;;;;;;;;;;;;;25.19;nan;101039.31;5049687;28;1363;-33
2022/09/23 12:57:11;;;;;;;;;;;;;;;25.18;nan;101032.28;5049514;28;1628;-23
2022/09/23 12:59:53;;;;;;;;;;;;;;;25.19;nan;101028.66;5050823;28;1312;-23
2022/09/23 13:02:40;;;;;;;;;;;;;;;25.19;nan;101023.34;5048251;28;1878;-27
2022/09/23 13:08:04;;;;;;;;;;;;;;;25.20;nan;101025.00;5049775;28;1161;-29
2022/09/23 13:10:32;;;;;;;;;;;;;;;25.20;nan;101026.84;5050792;28;1320;-30
2022/09/23 13:13:01;;;;;;;;;;;;;;;25.21;nan;101025.84;5049886;28;1266;-28
2022/09/23 13:15:32;;;;;;;;;;;;;;;25.22;nan;101017.75;5051064;28;1363;-25
2022/09/23 13:18:28;;;;;;;;;;;;;;;25.23;nan;101023.94;5048379;28;1046;-31
2022/09/23 13:20:55;;;;;;;;;;;;;;;25.24;nan;101020.28;5033593;28;1981;-29
2022/09/23 13:23:23;;;;;;;;;;;;;;;25.25;nan;101020.19;5082167;28;1299;-31
2022/09/23 13:25:52;;;;;;;;;;;;;;;25.27;nan;101002.22;5049757;28;1420;-32
2022/09/23 13:28:27;;;;;;;;;;;;;;;25.26;nan;101008.53;5083721;28;1183;-29
2022/09/23 13:30:55;;;;;;;;;;;;;;;25.26;nan;101002.38;5051687;28;1288;-31
2022/09/23 13:33:27;;;;;;;;;;;;;;;25.26;nan;100992.53;5050660;28;1216;-27
2022/09/23 13:35:57;;;;;;;;;;;;;;;25.27;nan;100994.22;5081274;28;1386;-26